Smit Orleans — CFN5087 — position and weather

sailwx.info

Track history (hours):
 
Tides and Currents Weather Stations Pressure Air Temp Water Temp Dewpoint Dewpoint Depression Visibility Wind Speed Wind Dir Waves Ship Positions

Smit Orleans

Last reported at 2015-Jul-06 23:34 UTC. Time now 2015-Jul-07 00:13 UTC.
Position N 49°17' W 123°04'.

Length 29 m; draft 5.1 m.

Type: . MMSI: 316012721.

Date/timePositionNaut miles runAvg speedWind from/ knotsBaromVisibWave heightAir tempDewpointWater temp
2015-Jul-06 23:34N 49°17' W 123°04'0 0.0
2015-Jul-06 22:34N 49°17' W 123°04'0 0.0
2015-Jul-06 21:34N 49°17' W 123°04'0 0.0
2015-Jul-06 20:34N 49°17' W 123°04'0 0.0
2015-Jul-06 19:34N 49°17' W 123°04'0 0.0
2015-Jul-06 18:34N 49°17' W 123°04'0 0.0
2015-Jul-06 17:34N 49°17' W 123°04'0 0.0
2015-Jul-06 16:34N 49°17' W 123°04'0 0.0
2015-Jul-06 15:33N 49°17' W 123°04'2 2.2
2015-Jul-06 14:33N 49°18' W 123°07'1 0.9
2015-Jul-06 13:34N 49°19' W 123°08'3 3.0
2015-Jul-06 12:34N 49°17' W 123°04'0 0.0
2015-Jul-06 11:34N 49°17' W 123°04'0 0.0
2015-Jul-06 10:34N 49°17' W 123°04'0 0.0
2015-Jul-06 09:33N 49°17' W 123°04'0 0.0
2015-Jul-06 08:34N 49°17' W 123°04'0 0.0
2015-Jul-06 07:34N 49°17' W 123°04'0 0.0
2015-Jul-06 06:33N 49°17' W 123°04'0 0.0
2015-Jul-06 05:34N 49°17' W 123°04'0 0.0
2015-Jul-06 04:34N 49°17' W 123°04'0 0.0
2015-Jul-06 03:34N 49°17' W 123°04'0 0.0
2015-Jul-06 02:34N 49°17' W 123°04'0 0.0
2015-Jul-06 01:34N 49°17' W 123°04'0 0.0
2015-Jul-06 00:34N 49°17' W 123°04'0 0.0
2015-Jul-05 23:33N 49°17' W 123°04'0 0.0
2015-Jul-05 22:34N 49°17' W 123°04'0 0.0
2015-Jul-05 21:34N 49°17' W 123°04'0 0.0
2015-Jul-05 20:34N 49°17' W 123°04'0 0.0
2015-Jul-05 19:34N 49°17' W 123°04'0 0.0
2015-Jul-05 18:34N 49°17' W 123°04'0 0.0
2015-Jul-05 17:34N 49°17' W 123°04'0 0.0
2015-Jul-05 16:34N 49°17' W 123°04'0 0.0
2015-Jul-05 15:34N 49°17' W 123°04'0 0.0
2015-Jul-05 14:34N 49°17' W 123°04'0 0.0
2015-Jul-05 13:34N 49°17' W 123°04'0 0.0
2015-Jul-05 12:34N 49°17' W 123°04'0 0.0
2015-Jul-05 11:34N 49°17' W 123°04'1 1.2
2015-Jul-05 10:34N 49°18' W 123°02'1 1.2
2015-Jul-05 09:33N 49°17' W 123°04'0 0.0
2015-Jul-05 08:34N 49°17' W 123°04'0 0.0
2015-Jul-05 07:34N 49°17' W 123°04'0 0.0
2015-Jul-05 06:34N 49°17' W 123°04'0 0.0
2015-Jul-05 05:34N 49°17' W 123°04'3 2.9
2015-Jul-05 04:33N 49°19' W 123°08'2 2.1
2015-Jul-05 03:33N 49°18' W 123°05'1 0.8
2015-Jul-05 02:33N 49°17' W 123°04'0 0.0
2015-Jul-05 01:33N 49°17' W 123°04'0 0.0
2015-Jul-05 00:33N 49°17' W 123°04'0 0.0
2015-Jul-04 23:33N 49°17' W 123°04'0 0.0
2015-Jul-04 22:33N 49°17' W 123°04'1 0.7
2015-Jul-04 21:33N 49°18' W 123°05'0 0.2
2015-Jul-04 20:33N 49°17' W 123°05'1 0.9
2015-Jul-04 19:33N 49°17' W 123°04'0 0.0
2015-Jul-04 18:33N 49°17' W 123°04'0 0.0
2015-Jul-04 17:33N 49°17' W 123°04'0 0.0
2015-Jul-04 16:33N 49°17' W 123°04'0 0.4
2015-Jul-04 15:33N 49°17' W 123°04'2 1.6
2015-Jul-04 14:33N 49°18' W 123°02'1 1.2
2015-Jul-04 13:33N 49°17' W 123°04'0 0.0
2015-Jul-04 12:33N 49°17' W 123°04'0 0.0
2015-Jul-04 11:33N 49°17' W 123°04'0 0.0
2015-Jul-04 10:33N 49°17' W 123°04'0 0.0
2015-Jul-04 09:33N 49°17' W 123°04'0 0.0
2015-Jul-04 08:33N 49°17' W 123°04'0 0.0
2015-Jul-04 07:33N 49°17' W 123°04'0 0.0
2015-Jul-04 06:33N 49°17' W 123°04'0 0.0
2015-Jul-04 05:33N 49°17' W 123°04'0 0.0
2015-Jul-04 04:33N 49°17' W 123°04'0 0.0
2015-Jul-04 03:33N 49°17' W 123°04'0 0.0
2015-Jul-04 02:33N 49°17' W 123°04'0 0.0
2015-Jul-04 01:33N 49°17' W 123°04'0 0.0
2015-Jul-04 00:33N 49°17' W 123°04'0 0.0
2015-Jul-03 23:33N 49°17' W 123°04'0 0.0
2015-Jul-03 22:33N 49°17' W 123°04'0 0.0
2015-Jul-03 21:33N 49°17' W 123°04'0 0.0
2015-Jul-03 20:33N 49°17' W 123°04'1 1.2
2015-Jul-03 19:33N 49°18' W 123°05'1 1.2
2015-Jul-03 18:33N 49°17' W 123°04'0 0.0
2015-Jul-03 17:33N 49°17' W 123°04'0 0.0
2015-Jul-03 16:33N 49°17' W 123°04'0 0.0
2015-Jul-03 15:33N 49°17' W 123°04'0 0.0
2015-Jul-03 14:33N 49°17' W 123°04'0 0.0
2015-Jul-03 13:33N 49°17' W 123°04'0 0.0
2015-Jul-03 12:33N 49°17' W 123°04'0 0.0
2015-Jul-03 11:33N 49°17' W 123°04'0 0.0
2015-Jul-03 10:33N 49°17' W 123°04'0 0.0
2015-Jul-03 09:33N 49°17' W 123°04'0 0.0
2015-Jul-03 08:33N 49°17' W 123°04'0 0.0
2015-Jul-03 07:33N 49°17' W 123°04'0 0.0
2015-Jul-03 06:33N 49°17' W 123°04'0 0.0
2015-Jul-03 05:33N 49°17' W 123°04'0 0.0
2015-Jul-03 04:33N 49°17' W 123°04'0 0.0
2015-Jul-03 03:33N 49°17' W 123°04'0 0.0
2015-Jul-03 02:33N 49°17' W 123°04'0 0.0
2015-Jul-03 01:33N 49°17' W 123°04'0 0.0
2015-Jul-03 00:33N 49°17' W 123°04'0 0.0
2015-Jul-02 23:33N 49°17' W 123°04'0 0.0
2015-Jul-02 22:33N 49°17' W 123°04'0 0.0
2015-Jul-02 21:33N 49°17' W 123°04'0 0.0
2015-Jul-02 20:33N 49°17' W 123°04'2 1.9
2015-Jul-02 19:33N 49°18' W 123°06'2 1.9
2015-Jul-02 18:33N 49°17' W 123°04'0 0.0
2015-Jul-02 17:33N 49°17' W 123°04'0 0.0
2015-Jul-02 16:33N 49°17' W 123°04'1 0.8
2015-Jul-02 15:33N 49°18' W 123°04'1 0.8
2015-Jul-02 14:33N 49°18' W 123°05'1 0.9
2015-Jul-02 13:33N 49°17' W 123°04'1 1.1
2015-Jul-02 12:33N 49°18' W 123°02'4 3.6
2015-Jul-02 11:33N 49°18' W 122°56'3 3.0
2015-Jul-02 10:33N 49°17' W 122°52'7 6.8
2015-Jul-02 09:33N 49°18' W 123°02'1 0.9
2015-Jul-02 08:33N 49°17' W 123°04'0 0.0
2015-Jul-02 07:33N 49°17' W 123°04'0 0.0
2015-Jul-02 06:33N 49°17' W 123°04'0 0.0
2015-Jul-02 05:33N 49°17' W 123°04'0 0.0
2015-Jul-02 04:33N 49°17' W 123°04'0 0.0
2015-Jul-02 03:33N 49°17' W 123°04'0 0.0
2015-Jul-02 02:33N 49°17' W 123°04'0 0.0
2015-Jul-02 01:33N 49°17' W 123°04'0 0.0
2015-Jul-02 00:33N 49°17' W 123°04'0 0.0
2015-Jul-01 23:33N 49°17' W 123°04'0 0.0
2015-Jul-01 22:33N 49°17' W 123°04'0 0.0
2015-Jul-01 21:33N 49°17' W 123°04'0 0.0
2015-Jul-01 20:33N 49°17' W 123°04'0 0.0
2015-Jul-01 19:33N 49°17' W 123°04'0 0.0
2015-Jul-01 18:33N 49°17' W 123°04'0 0.0
2015-Jul-01 17:33N 49°17' W 123°04'0 0.0
2015-Jul-01 16:33N 49°17' W 123°04'0 0.0
2015-Jul-01 15:33N 49°17' W 123°04'0 0.0
2015-Jul-01 14:33N 49°17' W 123°04'3 2.8
2015-Jul-01 13:33N 49°19' W 123°08'0 0.0
2015-Jul-01 12:33N 49°19' W 123°07'3 3.2
2015-Jul-01 11:33N 49°19' W 123°12'7 7.2
2015-Jul-01 10:33N 49°25' W 123°17'1110.8
2015-Jul-01 09:33N 49°36' W 123°14'6 4.4
2015-Jul-01 08:15N 49°41' W 123°10'0 0.3
2015-Jul-01 07:31N 49°41' W 123°10'7 7.3
2015-Jul-01 06:33N 49°34' W 123°15'9 8.6
2015-Jul-01 05:33N 49°26' W 123°17'7 7.0
2015-Jul-01 04:33N 49°19' W 123°14'7 6.9
2015-Jul-01 03:33N 49°17' W 123°04'1 0.6
2015-Jul-01 02:33N 49°17' W 123°05'1 0.6
2015-Jul-01 01:33N 49°17' W 123°04'0 0.0
2015-Jul-01 00:34N 49°17' W 123°04'0 0.0
2015-Jun-30 23:33N 49°17' W 123°04'1 0.8
2015-Jun-30 22:34N 49°17' W 123°05'1 0.8
2015-Jun-30 21:34N 49°17' W 123°04'0 0.0
2015-Jun-30 20:33N 49°17' W 123°04'0 0.0
2015-Jun-30 19:33N 49°17' W 123°04'0 0.0
2015-Jun-30 18:33N 49°17' W 123°04'0 0.0
2015-Jun-30 17:33N 49°17' W 123°04'0 0.0
2015-Jun-30 16:33N 49°17' W 123°04'0 0.0
2015-Jun-30 15:33N 49°17' W 123°04'1 1.5
2015-Jun-30 14:33N 49°18' W 123°06'0 0.3
2015-Jun-30 13:33N 49°17' W 123°06'1 1.2
2015-Jun-30 12:33N 49°17' W 123°04'2 2.2
2015-Jun-30 11:34N 49°18' W 123°00'3 2.9
2015-Jun-30 10:34N 49°18' W 123°05'1 0.8
2015-Jun-30 09:33N 49°17' W 123°04'0 0.0
2015-Jun-30 08:33N 49°17' W 123°04'0 0.0
2015-Jun-30 07:33N 49°17' W 123°04'1 0.6
2015-Jun-30 06:33N 49°17' W 123°05'0 0.2
2015-Jun-30 05:33N 49°18' W 123°04'0 0.4
2015-Jun-30 04:34N 49°17' W 123°04'9 9.2
2015-Jun-30 03:33N 49°20' W 123°17'1110.8
2015-Jun-30 02:33N 49°31' W 123°16'10 9.8
2015-Jun-30 01:33N 49°40' W 123°13'0 0.1
2015-Jun-30 00:32N 49°40' W 123°13'1 1.1
2015-Jun-29 23:33N 49°40' W 123°14'8 8.0
2015-Jun-29 22:33N 49°32' W 123°16'1211.8
2015-Jun-29 21:34N 49°20' W 123°17'9 8.8
2015-Jun-29 20:34N 49°17' W 123°04'0 0.0
2015-Jun-29 19:34N 49°17' W 123°04'0 0.0
2015-Jun-29 18:34N 49°17' W 123°04'2 2.5
2015-Jun-29 17:33N 49°19' W 123°07'2 1.9
2015-Jun-29 16:33N 49°18' W 123°04'1 0.7
2015-Jun-29 15:34N 49°17' W 123°04'0 0.0
2015-Jun-29 14:34N 49°17' W 123°04'0 0.0
2015-Jun-29 13:34N 49°17' W 123°04'0 0.0
2015-Jun-29 12:34N 49°17' W 123°04'0 0.0
2015-Jun-29 11:34N 49°17' W 123°04'0 0.0
2015-Jun-29 10:34N 49°17' W 123°04'4 3.9
2015-Jun-29 09:34N 49°18' W 122°58'3 3.4
2015-Jun-29 08:34N 49°18' W 122°52'2 2.1
2015-Jun-29 07:34N 49°18' W 122°56'6 6.1
2015-Jun-29 06:34N 49°19' W 123°05'2 1.8
2015-Jun-29 05:34N 49°19' W 123°07'1 0.9
2015-Jun-29 04:34N 49°19' W 123°09'4 3.6
2015-Jun-29 03:33N 49°17' W 123°04'0 0.0
2015-Jun-29 02:34N 49°17' W 123°04'0 0.0
2015-Jun-29 01:34N 49°17' W 123°04'0 0.0
2015-Jun-29 00:33N 49°17' W 123°04'0 0.0
2015-Jun-28 23:34N 49°17' W 123°04'0 0.0
2015-Jun-28 22:34N 49°17' W 123°04'0 0.0
2015-Jun-28 21:34N 49°17' W 123°04'0 0.0
2015-Jun-28 20:34N 49°17' W 123°04'0 0.0
2015-Jun-28 19:33N 49°17' W 123°04'1 1.1
2015-Jun-28 18:33N 49°18' W 123°02'2 2.0
2015-Jun-28 17:34N 49°18' W 123°05'2 2.0
2015-Jun-28 16:34N 49°18' W 123°02'1 1.1
2015-Jun-28 15:34N 49°17' W 123°04'0 0.0
2015-Jun-28 14:34N 49°17' W 123°04'0 0.0
2015-Jun-28 13:34N 49°17' W 123°04'5 5.3
2015-Jun-28 12:34N 49°19' W 123°11'7 7.4
2015-Jun-28 11:33N 49°26' W 123°18'9 9.4
2015-Jun-28 10:33N 49°35' W 123°15'1 0.5
2015-Jun-28 08:10N 49°36' W 123°15'6 9.1
2015-Jun-28 07:33N 49°31' W 123°16'9 9.4
2015-Jun-28 06:34N 49°21' W 123°18'9 9.2
2015-Jun-28 05:34N 49°18' W 123°05'1 0.7
2015-Jun-28 04:34N 49°17' W 123°04'0 0.0
2015-Jun-28 03:33N 49°17' W 123°04'0 0.0
2015-Jun-28 02:33N 49°17' W 123°04'0 0.0
2015-Jun-28 01:34N 49°17' W 123°04'1 0.6
2015-Jun-28 00:34N 49°17' W 123°05'1 0.9
2015-Jun-27 23:34N 49°18' W 123°04'1 0.7
2015-Jun-27 22:33N 49°17' W 123°04'0 0.0
2015-Jun-27 21:34N 49°17' W 123°04'0 0.0
2015-Jun-27 20:34N 49°17' W 123°04'0 0.0
2015-Jun-27 19:34N 49°17' W 123°04'0 0.0
2015-Jun-27 18:33N 49°17' W 123°04'0 0.0
2015-Jun-27 17:33N 49°17' W 123°04'0 0.0
2015-Jun-27 16:34N 49°17' W 123°04'0 0.0
2015-Jun-27 15:34N 49°17' W 123°04'0 0.0
2015-Jun-27 14:34N 49°17' W 123°04'0 0.3
2015-Jun-27 13:33N 49°17' W 123°04'2 1.5
2015-Jun-27 12:34N 49°18' W 123°06'2 1.7
2015-Jun-27 11:34N 49°17' W 123°04'0 0.0
2015-Jun-27 10:34N 49°17' W 123°04'1 0.8
2015-Jun-27 09:34N 49°18' W 123°03'1 0.7
2015-Jun-27 08:34N 49°18' W 123°04'1 0.6
2015-Jun-27 07:34N 49°17' W 123°04'0 0.0
2015-Jun-27 06:34N 49°17' W 123°04'0 0.0
2015-Jun-27 05:34N 49°17' W 123°04'0 0.0
2015-Jun-27 04:34N 49°17' W 123°04'1 0.8
2015-Jun-27 03:33N 49°18' W 123°04'1 0.8
2015-Jun-27 02:34N 49°17' W 123°04'0 0.0
2015-Jun-27 01:33N 49°17' W 123°04'0 0.0
2015-Jun-27 00:34N 49°17' W 123°04'  
Track history (hours):
 
Tides and Currents Weather Stations Pressure Air Temp Water Temp Dewpoint Dewpoint Depression Visibility Wind Speed Wind Dir Waves Ship Positions

Smit Orleans

Last reported at 2015-Jul-06 23:34 UTC. Time now 2015-Jul-07 00:13 UTC.
Position N 49°17' W 123°04'.

Length 29 m; draft 5.1 m.

Type: . MMSI: 316012721.

Date/timePositionNaut miles runAvg speedWind from/ knotsBaromVisibWave heightAir tempDewpointWater temp
2015-Jul-06 23:34N 49°17' W 123°04'0 0.0
2015-Jul-06 22:34N 49°17' W 123°04'0 0.0
2015-Jul-06 21:34N 49°17' W 123°04'0 0.0
2015-Jul-06 20:34N 49°17' W 123°04'0 0.0
2015-Jul-06 19:34N 49°17' W 123°04'0 0.0
2015-Jul-06 18:34N 49°17' W 123°04'0 0.0
2015-Jul-06 17:34N 49°17' W 123°04'0 0.0
2015-Jul-06 16:34N 49°17' W 123°04'0 0.0
2015-Jul-06 15:33N 49°17' W 123°04'2 2.2
2015-Jul-06 14:33N 49°18' W 123°07'1 0.9
2015-Jul-06 13:34N 49°19' W 123°08'3 3.0
2015-Jul-06 12:34N 49°17' W 123°04'0 0.0
2015-Jul-06 11:34N 49°17' W 123°04'0 0.0
2015-Jul-06 10:34N 49°17' W 123°04'0 0.0
2015-Jul-06 09:33N 49°17' W 123°04'0 0.0
2015-Jul-06 08:34N 49°17' W 123°04'0 0.0
2015-Jul-06 07:34N 49°17' W 123°04'0 0.0
2015-Jul-06 06:33N 49°17' W 123°04'0 0.0
2015-Jul-06 05:34N 49°17' W 123°04'0 0.0
2015-Jul-06 04:34N 49°17' W 123°04'0 0.0
2015-Jul-06 03:34N 49°17' W 123°04'0 0.0
2015-Jul-06 02:34N 49°17' W 123°04'0 0.0
2015-Jul-06 01:34N 49°17' W 123°04'0 0.0
2015-Jul-06 00:34N 49°17' W 123°04'0 0.0
2015-Jul-05 23:33N 49°17' W 123°04'0 0.0
2015-Jul-05 22:34N 49°17' W 123°04'0 0.0
2015-Jul-05 21:34N 49°17' W 123°04'0 0.0
2015-Jul-05 20:34N 49°17' W 123°04'0 0.0
2015-Jul-05 19:34N 49°17' W 123°04'0 0.0
2015-Jul-05 18:34N 49°17' W 123°04'0 0.0
2015-Jul-05 17:34N 49°17' W 123°04'0 0.0
2015-Jul-05 16:34N 49°17' W 123°04'0 0.0
2015-Jul-05 15:34N 49°17' W 123°04'0 0.0
2015-Jul-05 14:34N 49°17' W 123°04'0 0.0
2015-Jul-05 13:34N 49°17' W 123°04'0 0.0
2015-Jul-05 12:34N 49°17' W 123°04'0 0.0
2015-Jul-05 11:34N 49°17' W 123°04'1 1.2
2015-Jul-05 10:34N 49°18' W 123°02'1 1.2
2015-Jul-05 09:33N 49°17' W 123°04'0 0.0
2015-Jul-05 08:34N 49°17' W 123°04'0 0.0
2015-Jul-05 07:34N 49°17' W 123°04'0 0.0
2015-Jul-05 06:34N 49°17' W 123°04'0 0.0
2015-Jul-05 05:34N 49°17' W 123°04'3 2.9
2015-Jul-05 04:33N 49°19' W 123°08'2 2.1
2015-Jul-05 03:33N 49°18' W 123°05'1 0.8
2015-Jul-05 02:33N 49°17' W 123°04'0 0.0
2015-Jul-05 01:33N 49°17' W 123°04'0 0.0
2015-Jul-05 00:33N 49°17' W 123°04'0 0.0
2015-Jul-04 23:33N 49°17' W 123°04'0 0.0
2015-Jul-04 22:33N 49°17' W 123°04'1 0.7
2015-Jul-04 21:33N 49°18' W 123°05'0 0.2
2015-Jul-04 20:33N 49°17' W 123°05'1 0.9
2015-Jul-04 19:33N 49°17' W 123°04'0 0.0
2015-Jul-04 18:33N 49°17' W 123°04'0 0.0
2015-Jul-04 17:33N 49°17' W 123°04'0 0.0
2015-Jul-04 16:33N 49°17' W 123°04'0 0.4
2015-Jul-04 15:33N 49°17' W 123°04'2 1.6
2015-Jul-04 14:33N 49°18' W 123°02'1 1.2
2015-Jul-04 13:33N 49°17' W 123°04'0 0.0
2015-Jul-04 12:33N 49°17' W 123°04'0 0.0
2015-Jul-04 11:33N 49°17' W 123°04'0 0.0
2015-Jul-04 10:33N 49°17' W 123°04'0 0.0
2015-Jul-04 09:33N 49°17' W 123°04'0 0.0
2015-Jul-04 08:33N 49°17' W 123°04'0 0.0
2015-Jul-04 07:33N 49°17' W 123°04'0 0.0
2015-Jul-04 06:33N 49°17' W 123°04'0 0.0
2015-Jul-04 05:33N 49°17' W 123°04'0 0.0
2015-Jul-04 04:33N 49°17' W 123°04'0 0.0
2015-Jul-04 03:33N 49°17' W 123°04'0 0.0
2015-Jul-04 02:33N 49°17' W 123°04'0 0.0
2015-Jul-04 01:33N 49°17' W 123°04'0 0.0
2015-Jul-04 00:33N 49°17' W 123°04'0 0.0
2015-Jul-03 23:33N 49°17' W 123°04'0 0.0
2015-Jul-03 22:33N 49°17' W 123°04'0 0.0
2015-Jul-03 21:33N 49°17' W 123°04'0 0.0
2015-Jul-03 20:33N 49°17' W 123°04'1 1.2
2015-Jul-03 19:33N 49°18' W 123°05'1 1.2
2015-Jul-03 18:33N 49°17' W 123°04'0 0.0
2015-Jul-03 17:33N 49°17' W 123°04'0 0.0
2015-Jul-03 16:33N 49°17' W 123°04'0 0.0
2015-Jul-03 15:33N 49°17' W 123°04'0 0.0
2015-Jul-03 14:33N 49°17' W 123°04'0 0.0
2015-Jul-03 13:33N 49°17' W 123°04'0 0.0
2015-Jul-03 12:33N 49°17' W 123°04'0 0.0
2015-Jul-03 11:33N 49°17' W 123°04'0 0.0
2015-Jul-03 10:33N 49°17' W 123°04'0 0.0
2015-Jul-03 09:33N 49°17' W 123°04'0 0.0
2015-Jul-03 08:33N 49°17' W 123°04'0 0.0
2015-Jul-03 07:33N 49°17' W 123°04'0 0.0
2015-Jul-03 06:33N 49°17' W 123°04'0 0.0
2015-Jul-03 05:33N 49°17' W 123°04'0 0.0
2015-Jul-03 04:33N 49°17' W 123°04'0 0.0
2015-Jul-03 03:33N 49°17' W 123°04'0 0.0
2015-Jul-03 02:33N 49°17' W 123°04'0 0.0
2015-Jul-03 01:33N 49°17' W 123°04'0 0.0
2015-Jul-03 00:33N 49°17' W 123°04'0 0.0
2015-Jul-02 23:33N 49°17' W 123°04'0 0.0
2015-Jul-02 22:33N 49°17' W 123°04'0 0.0
2015-Jul-02 21:33N 49°17' W 123°04'0 0.0
2015-Jul-02 20:33N 49°17' W 123°04'2 1.9
2015-Jul-02 19:33N 49°18' W 123°06'2 1.9
2015-Jul-02 18:33N 49°17' W 123°04'0 0.0
2015-Jul-02 17:33N 49°17' W 123°04'0 0.0
2015-Jul-02 16:33N 49°17' W 123°04'1 0.8
2015-Jul-02 15:33N 49°18' W 123°04'1 0.8
2015-Jul-02 14:33N 49°18' W 123°05'1 0.9
2015-Jul-02 13:33N 49°17' W 123°04'1 1.1
2015-Jul-02 12:33N 49°18' W 123°02'4 3.6
2015-Jul-02 11:33N 49°18' W 122°56'3 3.0
2015-Jul-02 10:33N 49°17' W 122°52'7 6.8
2015-Jul-02 09:33N 49°18' W 123°02'1 0.9
2015-Jul-02 08:33N 49°17' W 123°04'0 0.0
2015-Jul-02 07:33N 49°17' W 123°04'0 0.0
2015-Jul-02 06:33N 49°17' W 123°04'0 0.0
2015-Jul-02 05:33N 49°17' W 123°04'0 0.0
2015-Jul-02 04:33N 49°17' W 123°04'0 0.0
2015-Jul-02 03:33N 49°17' W 123°04'0 0.0
2015-Jul-02 02:33N 49°17' W 123°04'0 0.0
2015-Jul-02 01:33N 49°17' W 123°04'0 0.0
2015-Jul-02 00:33N 49°17' W 123°04'0 0.0
2015-Jul-01 23:33N 49°17' W 123°04'0 0.0
2015-Jul-01 22:33N 49°17' W 123°04'0 0.0
2015-Jul-01 21:33N 49°17' W 123°04'0 0.0
2015-Jul-01 20:33N 49°17' W 123°04'0 0.0
2015-Jul-01 19:33N 49°17' W 123°04'0 0.0
2015-Jul-01 18:33N 49°17' W 123°04'0 0.0
2015-Jul-01 17:33N 49°17' W 123°04'0 0.0
2015-Jul-01 16:33N 49°17' W 123°04'0 0.0
2015-Jul-01 15:33N 49°17' W 123°04'0 0.0
2015-Jul-01 14:33N 49°17' W 123°04'3 2.8
2015-Jul-01 13:33N 49°19' W 123°08'0 0.0
2015-Jul-01 12:33N 49°19' W 123°07'3 3.2
2015-Jul-01 11:33N 49°19' W 123°12'7 7.2
2015-Jul-01 10:33N 49°25' W 123°17'1110.8
2015-Jul-01 09:33N 49°36' W 123°14'6 4.4
2015-Jul-01 08:15N 49°41' W 123°10'0 0.3
2015-Jul-01 07:31N 49°41' W 123°10'7 7.3
2015-Jul-01 06:33N 49°34' W 123°15'9 8.6
2015-Jul-01 05:33N 49°26' W 123°17'7 7.0
2015-Jul-01 04:33N 49°19' W 123°14'7 6.9
2015-Jul-01 03:33N 49°17' W 123°04'1 0.6
2015-Jul-01 02:33N 49°17' W 123°05'1 0.6
2015-Jul-01 01:33N 49°17' W 123°04'0 0.0
2015-Jul-01 00:34N 49°17' W 123°04'0 0.0
2015-Jun-30 23:33N 49°17' W 123°04'1 0.8
2015-Jun-30 22:34N 49°17' W 123°05'1 0.8
2015-Jun-30 21:34N 49°17' W 123°04'0 0.0
2015-Jun-30 20:33N 49°17' W 123°04'0 0.0
2015-Jun-30 19:33N 49°17' W 123°04'0 0.0
2015-Jun-30 18:33N 49°17' W 123°04'0 0.0
2015-Jun-30 17:33N 49°17' W 123°04'0 0.0
2015-Jun-30 16:33N 49°17' W 123°04'0 0.0
2015-Jun-30 15:33N 49°17' W 123°04'1 1.5
2015-Jun-30 14:33N 49°18' W 123°06'0 0.3
2015-Jun-30 13:33N 49°17' W 123°06'1 1.2
2015-Jun-30 12:33N 49°17' W 123°04'2 2.2
2015-Jun-30 11:34N 49°18' W 123°00'3 2.9
2015-Jun-30 10:34N 49°18' W 123°05'1 0.8
2015-Jun-30 09:33N 49°17' W 123°04'0 0.0
2015-Jun-30 08:33N 49°17' W 123°04'0 0.0
2015-Jun-30 07:33N 49°17' W 123°04'1 0.6
2015-Jun-30 06:33N 49°17' W 123°05'0 0.2
2015-Jun-30 05:33N 49°18' W 123°04'0 0.4
2015-Jun-30 04:34N 49°17' W 123°04'9 9.2
2015-Jun-30 03:33N 49°20' W 123°17'1110.8
2015-Jun-30 02:33N 49°31' W 123°16'10 9.8
2015-Jun-30 01:33N 49°40' W 123°13'0 0.1
2015-Jun-30 00:32N 49°40' W 123°13'1 1.1
2015-Jun-29 23:33N 49°40' W 123°14'8 8.0
2015-Jun-29 22:33N 49°32' W 123°16'1211.8
2015-Jun-29 21:34N 49°20' W 123°17'9 8.8
2015-Jun-29 20:34N 49°17' W 123°04'0 0.0
2015-Jun-29 19:34N 49°17' W 123°04'0 0.0
2015-Jun-29 18:34N 49°17' W 123°04'2 2.5
2015-Jun-29 17:33N 49°19' W 123°07'2 1.9
2015-Jun-29 16:33N 49°18' W 123°04'1 0.7
2015-Jun-29 15:34N 49°17' W 123°04'0 0.0
2015-Jun-29 14:34N 49°17' W 123°04'0 0.0
2015-Jun-29 13:34N 49°17' W 123°04'0 0.0
2015-Jun-29 12:34N 49°17' W 123°04'0 0.0
2015-Jun-29 11:34N 49°17' W 123°04'0 0.0
2015-Jun-29 10:34N 49°17' W 123°04'4 3.9
2015-Jun-29 09:34N 49°18' W 122°58'3 3.4
2015-Jun-29 08:34N 49°18' W 122°52'2 2.1
2015-Jun-29 07:34N 49°18' W 122°56'6 6.1
2015-Jun-29 06:34N 49°19' W 123°05'2 1.8
2015-Jun-29 05:34N 49°19' W 123°07'1 0.9
2015-Jun-29 04:34N 49°19' W 123°09'4 3.6
2015-Jun-29 03:33N 49°17' W 123°04'0 0.0
2015-Jun-29 02:34N 49°17' W 123°04'0 0.0
2015-Jun-29 01:34N 49°17' W 123°04'0 0.0
2015-Jun-29 00:33N 49°17' W 123°04'0 0.0
2015-Jun-28 23:34N 49°17' W 123°04'0 0.0
2015-Jun-28 22:34N 49°17' W 123°04'0 0.0
2015-Jun-28 21:34N 49°17' W 123°04'0 0.0
2015-Jun-28 20:34N 49°17' W 123°04'0 0.0
2015-Jun-28 19:33N 49°17' W 123°04'1 1.1
2015-Jun-28 18:33N 49°18' W 123°02'2 2.0
2015-Jun-28 17:34N 49°18' W 123°05'2 2.0
2015-Jun-28 16:34N 49°18' W 123°02'1 1.1
2015-Jun-28 15:34N 49°17' W 123°04'0 0.0
2015-Jun-28 14:34N 49°17' W 123°04'0 0.0
2015-Jun-28 13:34N 49°17' W 123°04'5 5.3
2015-Jun-28 12:34N 49°19' W 123°11'7 7.4
2015-Jun-28 11:33N 49°26' W 123°18'9 9.4
2015-Jun-28 10:33N 49°35' W 123°15'1 0.5
2015-Jun-28 08:10N 49°36' W 123°15'6 9.1
2015-Jun-28 07:33N 49°31' W 123°16'9 9.4
2015-Jun-28 06:34N 49°21' W 123°18'9 9.2
2015-Jun-28 05:34N 49°18' W 123°05'1 0.7
2015-Jun-28 04:34N 49°17' W 123°04'0 0.0
2015-Jun-28 03:33N 49°17' W 123°04'0 0.0
2015-Jun-28 02:33N 49°17' W 123°04'0 0.0
2015-Jun-28 01:34N 49°17' W 123°04'1 0.6
2015-Jun-28 00:34N 49°17' W 123°05'1 0.9
2015-Jun-27 23:34N 49°18' W 123°04'1 0.7
2015-Jun-27 22:33N 49°17' W 123°04'0 0.0
2015-Jun-27 21:34N 49°17' W 123°04'0 0.0
2015-Jun-27 20:34N 49°17' W 123°04'0 0.0
2015-Jun-27 19:34N 49°17' W 123°04'0 0.0
2015-Jun-27 18:33N 49°17' W 123°04'0 0.0
2015-Jun-27 17:33N 49°17' W 123°04'0 0.0
2015-Jun-27 16:34N 49°17' W 123°04'0 0.0
2015-Jun-27 15:34N 49°17' W 123°04'0 0.0
2015-Jun-27 14:34N 49°17' W 123°04'0 0.3
2015-Jun-27 13:33N 49°17' W 123°04'2 1.5
2015-Jun-27 12:34N 49°18' W 123°06'2 1.7
2015-Jun-27 11:34N 49°17' W 123°04'0 0.0
2015-Jun-27 10:34N 49°17' W 123°04'1 0.8
2015-Jun-27 09:34N 49°18' W 123°03'1 0.7
2015-Jun-27 08:34N 49°18' W 123°04'1 0.6
2015-Jun-27 07:34N 49°17' W 123°04'0 0.0
2015-Jun-27 06:34N 49°17' W 123°04'0 0.0
2015-Jun-27 05:34N 49°17' W 123°04'0 0.0
2015-Jun-27 04:34N 49°17' W 123°04'1 0.8
2015-Jun-27 03:33N 49°18' W 123°04'1 0.8
2015-Jun-27 02:34N 49°17' W 123°04'0 0.0
2015-Jun-27 01:33N 49°17' W 123°04'0 0.0
2015-Jun-27 00:34N 49°17' W 123°04'  

Dump ship's entire track history